Time;durP1;ratioP1;P1;durP2;ratioP2;P2;SDS_P1;SDS_P2;PMS_P1;PMS_P2;Temp;Humidity;BMP_temperature;BMP_pressure;BME280_temperature;BME280_humidity;BME280_pressure;Samples;Min_cycle;Max_cycle;Signal;HPM_P1;HPM_P2
2023/05/08 00:00:59;;;;;;;9.38;3.80;;;;;;;2.37;100.00;99831.06;5160442;27;20074;-59
2023/05/08 00:03:25;;;;;;;7.45;3.53;;;;;;;2.39;100.00;99823.44;5160124;27;20388;-58
2023/05/08 00:05:54;;;;;;;4.85;3.35;;;;;;;2.38;100.00;99815.63;5160371;27;20316;-63
2023/05/08 00:08:20;;;;;;;8.00;3.75;;;;;;;2.27;100.00;99810.38;5160185;27;20060;-64
2023/05/08 00:10:46;;;;;;;9.27;3.47;;;;;;;2.28;100.00;99800.34;5160149;27;20046;-59
2023/05/08 00:13:12;;;;;;;8.10;3.60;;;;;;;2.22;100.00;99790.72;5160230;27;20412;-64
2023/05/08 00:15:38;;;;;;;6.40;3.47;;;;;;;2.23;100.00;99798.56;5160095;27;20089;-66
2023/05/08 00:18:04;;;;;;;8.48;3.30;;;;;;;2.24;100.00;99805.56;5160320;27;20078;-61
2023/05/08 00:20:30;;;;;;;7.38;3.33;;;;;;;2.19;100.00;99794.81;5159990;27;20050;-63
2023/05/08 00:22:57;;;;;;;6.78;3.72;;;;;;;2.12;100.00;99786.25;5160300;27;20471;-65
2023/05/08 00:25:23;;;;;;;7.15;3.38;;;;;;;2.15;100.00;99780.25;5159875;27;20141;-63
2023/05/08 00:27:49;;;;;;;5.13;3.53;;;;;;;2.09;100.00;99765.19;5160248;27;20053;-65
2023/05/08 00:30:15;;;;;;;7.63;3.70;;;;;;;2.06;100.00;99761.19;5160032;27;20094;-63
2023/05/08 00:32:41;;;;;;;6.70;3.78;;;;;;;2.14;100.00;99746.19;5159853;27;20058;-54
2023/05/08 00:35:08;;;;;;;4.30;3.00;;;;;;;2.09;100.00;99747.06;5159786;27;20145;-56
2023/05/08 00:37:34;;;;;;;5.35;3.45;;;;;;;2.08;100.00;99748.16;5159824;27;20189;-63
2023/05/08 00:40:01;;;;;;;7.15;3.33;;;;;;;2.12;100.00;99746.47;5159976;27;20126;-63
2023/05/08 00:42:26;;;;;;;8.35;3.28;;;;;;;2.04;100.00;99751.78;5159460;27;20137;-59
2023/05/08 00:44:52;;;;;;;7.30;3.75;;;;;;;2.08;100.00;99745.47;5159936;27;20134;-64
2023/05/08 00:47:20;;;;;;;7.93;3.58;;;;;;;1.97;100.00;99744.03;5159471;27;20449;-64
2023/05/08 00:49:46;;;;;;;7.65;4.05;;;;;;;1.98;100.00;99734.00;5159840;27;20138;-56
2023/05/08 00:52:12;;;;;;;8.63;3.75;;;;;;;1.97;100.00;99729.72;5159301;27;20454;-64
2023/05/08 00:54:39;;;;;;;7.60;3.63;;;;;;;1.96;100.00;99728.09;5160091;27;20046;-64
2023/05/08 00:57:06;;;;;;;9.00;3.45;;;;;;;1.94;100.00;99730.28;5161360;27;20133;-63
2023/05/08 00:59:34;;;;;;;5.75;3.00;;;;;;;1.84;100.00;99715.81;5161460;27;20077;-63
2023/05/08 01:02:00;;;;;;;3.70;3.13;;;;;;;1.87;100.00;99726.06;5159535;27;20106;-65
2023/05/08 01:04:29;;;;;;;6.47;4.03;;;;;;;1.83;100.00;99721.50;5159391;27;20069;-63
2023/05/08 01:06:55;;;;;;;12.07;3.78;;;;;;;1.84;100.00;99726.63;5159439;27;20327;-60
2023/05/08 01:09:21;;;;;;;4.47;3.28;;;;;;;1.76;100.00;99716.47;5159294;27;20047;-56
2023/05/08 01:11:55;;;;;;;6.43;3.63;;;;;;;1.81;100.00;99712.91;5159395;27;20308;-60
2023/05/08 01:14:34;;;;;;;9.30;3.65;;;;;;;1.75;100.00;99708.66;5159102;27;20046;-56
2023/05/08 01:17:11;;;;;;;5.78;3.58;;;;;;;1.76;100.00;99702.94;5159451;27;20065;-63
2023/05/08 01:19:57;;;;;;;6.18;4.20;;;;;;;1.72;100.00;99712.75;5158960;27;20082;-63
2023/05/08 01:22:43;;;;;;;6.28;4.03;;;;;;;1.67;100.00;99712.00;5159132;27;20047;-63
2023/05/08 01:25:39;;;;;;;7.07;3.30;;;;;;;1.68;100.00;99711.72;5159078;27;20085;-58
2023/05/08 01:28:27;;;;;;;6.32;3.83;;;;;;;1.62;100.00;99734.50;5158918;27;20319;-60
2023/05/08 01:31:02;;;;;;;6.22;3.60;;;;;;;1.76;100.00;99742.69;5159164;27;20046;-64
2023/05/08 01:33:33;;;;;;;;;;;;;;;1.73;100.00;99754.91;5159453;27;20058;-55
2023/05/08 01:36:05;;;;;;;7.45;3.25;;;;;;;1.67;100.00;99753.38;5158857;27;19970;-60
2023/05/08 01:38:39;;;;;;;6.25;3.20;;;;;;;1.67;100.00;99745.28;5158821;27;20068;-61
2023/05/08 01:41:09;;;;;;;5.57;3.30;;;;;;;1.65;100.00;99742.03;5158627;27;20055;-63
2023/05/08 01:43:45;;;;;;;7.35;3.50;;;;;;;1.68;100.00;99743.38;5158988;27;20057;-55
2023/05/08 01:46:17;;;;;;;4.90;3.70;;;;;;;1.59;100.00;99745.91;5158588;27;20137;-63
2023/05/08 01:48:49;;;;;;;7.05;3.55;;;;;;;1.52;100.00;99734.66;5158968;27;20102;-60
2023/05/08 01:51:20;;;;;;;16.38;4.18;;;;;;;1.45;100.00;99723.41;5158638;27;20134;-63
2023/05/08 01:53:50;;;;;;;13.82;3.67;;;;;;;1.36;100.00;99715.94;5157863;27;20334;-57
2023/05/08 01:56:21;;;;;;;10.75;3.55;;;;;;;1.46;100.00;99706.09;5158737;27;20053;-65
2023/05/08 01:58:49;;;;;;;7.78;3.75;;;;;;;1.35;100.00;99705.44;5158509;27;20061;-65
2023/05/08 02:01:19;;;;;;;3.80;3.05;;;;;;;1.37;100.00;99716.75;5158676;27;20051;-61
2023/05/08 02:03:48;;;;;;;6.20;3.50;;;;;;;1.47;100.00;99732.84;5158295;27;20416;-59
2023/05/08 02:06:16;;;;;;;4.38;3.45;;;;;;;1.48;100.00;99730.94;5158569;27;20068;-61
2023/05/08 02:08:43;;;;;;;6.03;3.78;;;;;;;1.37;100.00;99731.06;5158295;27;20051;-65
2023/05/08 02:11:11;;;;;;;5.20;3.30;;;;;;;1.38;100.00;99719.16;5158605;27;20132;-66
2023/05/08 02:13:39;;;;;;;5.63;3.30;;;;;;;1.18;100.00;99716.72;5158086;27;20133;-59
2023/05/08 02:16:08;;;;;;;6.68;3.78;;;;;;;1.34;100.00;99714.63;5158375;27;20206;-61
2023/05/08 02:18:36;;;;;;;8.52;3.53;;;;;;;1.36;100.00;99715.94;5158332;27;20110;-56
2023/05/08 02:21:04;;;;;;;9.55;3.83;;;;;;;1.30;100.00;99754.09;5158005;27;20058;-64
2023/05/08 02:23:33;;;;;;;5.35;3.30;;;;;;;1.47;100.00;99745.53;5158172;27;20404;-57
2023/05/08 02:26:01;;;;;;;9.55;3.88;;;;;;;1.52;100.00;99767.88;5158152;27;20060;-57
2023/05/08 02:28:29;;;;;;;11.13;4.10;;;;;;;1.42;100.00;99770.72;5158311;27;20043;-57
2023/05/08 02:30:57;;;;;;;7.38;3.55;;;;;;;1.45;100.00;99766.63;5157828;27;20141;-60
2023/05/08 02:33:24;;;;;;;6.25;3.13;;;;;;;1.51;100.00;99770.88;5158307;27;20137;-58
2023/05/08 02:35:51;;;;;;;6.65;3.60;;;;;;;1.55;100.00;99766.50;5157832;27;20429;-64
2023/05/08 02:38:20;;;;;;;6.20;3.08;;;;;;;1.54;100.00;99770.31;5158344;27;20046;-60
2023/05/08 02:40:52;;;;;;;7.95;3.85;;;;;;;1.61;100.00;99757.25;5157993;27;20141;-60
2023/05/08 02:43:18;;;;;;;5.00;3.67;;;;;;;1.49;100.00;99756.84;5157994;27;20141;-60
2023/05/08 02:45:48;;;;;;;6.65;3.78;;;;;;;1.60;100.00;99740.22;5158012;27;20047;-59
2023/05/08 02:48:21;;;;;;;6.95;3.35;;;;;;;1.60;100.00;99739.41;5158066;27;20133;-56
2023/05/08 02:50:56;;;;;;;12.40;4.22;;;;;;;1.89;100.00;99750.09;5157973;27;20050;-59
2023/05/08 02:53:30;;;;;;;8.43;3.63;;;;;;;2.34;100.00;99767.53;5157725;27;20061;-60
2023/05/08 02:56:02;;;;;;;;;;;;;;;2.87;100.00;99817.81;5158442;27;20042;-61
2023/05/08 02:58:34;;;;;;;10.80;3.72;;;;;;;3.33;100.00;99876.56;5157633;27;19933;-61
2023/05/08 03:01:05;;;;;;;7.07;3.63;;;;;;;3.61;100.00;99928.94;5157489;27;20145;-56
2023/05/08 03:03:38;;;;;;;17.90;3.72;;;;;;;4.01;100.00;99994.34;5157581;27;20068;-63
2023/05/08 03:06:09;;;;;;;4.68;3.72;;;;;;;3.86;100.00;100048.88;5158150;27;20060;-55
2023/05/08 03:08:37;;;;;;;6.38;4.30;;;;;;;4.67;100.00;100081.84;5161500;27;20181;-61
2023/05/08 03:11:07;;;;;;;5.38;3.35;;;;;;;4.90;100.00;100118.84;5161129;27;20050;-63
2023/05/08 03:13:36;;;;;;;5.90;3.38;;;;;;;5.13;100.00;100159.66;5161350;27;20042;-56
2023/05/08 03:16:05;;;;;;;6.43;3.70;;;;;;;5.70;100.00;100219.91;5160889;27;20133;-55
2023/05/08 03:18:36;;;;;;;7.38;3.33;;;;;;;5.62;100.00;100229.56;5161355;27;20092;-60
2023/05/08 03:21:04;;;;;;;5.82;3.25;;;;;;;5.97;100.00;100235.38;5160953;27;20077;-56
2023/05/08 03:23:35;;;;;;;8.85;3.28;;;;;;;5.91;100.00;100269.22;5161130;27;20046;-59
2023/05/08 03:26:03;;;;;;;14.02;3.50;;;;;;;6.16;100.00;100299.72;5161145;27;20064;-65
2023/05/08 03:28:31;;;;;;;4.03;3.15;;;;;;;6.88;100.00;100305.06;5160998;27;20142;-57
2023/05/08 03:30:58;;;;;;;4.55;2.80;;;;;;;6.60;96.06;100323.47;5161052;27;20078;-64
2023/05/08 03:33:26;;;;;;;7.38;3.03;;;;;;;7.15;93.44;100330.53;5160849;27;20061;-57
2023/05/08 03:35:53;;;;;;;4.70;3.22;;;;;;;6.98;89.33;100336.69;5160963;27;20145;-62
2023/05/08 03:38:21;;;;;;;8.52;3.42;;;;;;;7.10;84.28;100347.84;5160676;27;20071;-59
2023/05/08 03:40:48;;;;;;;4.80;3.33;;;;;;;7.57;83.96;100353.69;5160919;27;20482;-57
2023/05/08 03:43:15;;;;;;;6.82;3.50;;;;;;;7.55;84.37;100353.97;5160613;27;20062;-61
2023/05/08 03:45:41;;;;;;;7.00;3.53;;;;;;;8.18;80.59;100362.81;5160988;27;20062;-66
2023/05/08 03:48:09;;;;;;;7.03;3.13;;;;;;;8.63;77.60;100378.13;5160429;27;20043;-59
2023/05/08 03:50:37;;;;;;;8.65;3.47;;;;;;;9.01;76.50;100366.53;5160393;27;20411;-56
2023/05/08 03:53:03;;;;;;;9.23;3.33;;;;;;;9.16;74.36;100379.66;5160591;27;20043;-60
2023/05/08 03:55:29;;;;;;;6.53;2.95;;;;;;;9.62;71.23;100380.81;5160645;27;20047;-65
2023/05/08 03:58:00;;;;;;;4.43;2.78;;;;;;;9.83;71.16;100376.22;5160582;27;20088;-56
2023/05/08 04:00:36;;;;;;;8.85;2.83;;;;;;;8.95;68.81;100380.34;5160412;27;20059;-58
2023/05/08 04:03:18;;;;;;;5.55;2.72;;;;;;;9.40;69.43;100388.16;5160625;27;20058;-58
2023/05/08 04:05:50;;;;;;;6.57;2.65;;;;;;;9.37;68.97;100385.28;5160107;27;20416;-58
2023/05/08 04:08:21;;;;;;;2.72;2.38;;;;;;;9.50;67.74;100387.00;5160619;27;20139;-63
2023/05/08 04:10:53;;;;;;;8.65;3.58;;;;;;;10.47;64.96;100388.91;5160300;27;20050;-59
2023/05/08 04:13:23;;;;;;;4.95;2.83;;;;;;;10.67;64.44;100392.78;5160273;27;20056;-65
2023/05/08 04:15:52;;;;;;;14.52;2.92;;;;;;;10.73;64.07;100387.88;5160440;27;20163;-55
2023/05/08 04:18:24;;;;;;;5.70;2.70;;;;;;;10.43;66.91;100392.63;5159526;27;20145;-64
2023/05/08 04:20:54;;;;;;;3.65;2.72;;;;;;;10.70;65.32;100399.53;5160410;27;20050;-64
2023/05/08 04:23:22;;;;;;;6.03;3.10;;;;;;;10.82;63.51;100397.63;5159890;27;20470;-62
2023/05/08 04:25:50;;;;;;;10.18;3.13;;;;;;;11.76;61.77;100407.13;5160483;27;20047;-55
2023/05/08 04:28:17;;;;;;;4.35;3.22;;;;;;;12.14;60.31;100412.31;5159905;27;20043;-65
2023/05/08 04:30:44;;;;;;;5.90;2.55;;;;;;;11.96;59.39;100411.78;5161608;27;20129;-61
2023/05/08 04:33:12;;;;;;;4.90;2.83;;;;;;;11.94;59.87;100403.06;5162003;27;20051;-63
2023/05/08 04:35:37;;;;;;;5.93;2.95;;;;;;;12.09;59.43;100412.53;5160222;27;20047;-54
2023/05/08 04:38:03;;;;;;;6.68;3.17;;;;;;;12.57;60.11;100413.63;5159969;27;20051;-55
2023/05/08 04:40:29;;;;;;;5.00;2.75;;;;;;;12.14;58.98;100409.56;5159605;27;20562;-59
2023/05/08 04:42:55;;;;;;;3.17;2.80;;;;;;;12.48;59.33;100412.97;5159905;27;20057;-60
2023/05/08 04:45:21;;;;;;;6.32;2.90;;;;;;;12.94;58.67;100408.00;5159723;27;20050;-62
2023/05/08 04:47:47;;;;;;;5.47;3.05;;;;;;;13.51;57.48;100415.09;5159821;27;20060;-55
2023/05/08 04:50:14;;;;;;;6.05;2.50;;;;;;;13.98;56.38;100416.25;5159597;27;20047;-56
2023/05/08 04:52:40;;;;;;;6.07;3.20;;;;;;;13.56;56.21;100408.50;5159770;27;20062;-58
2023/05/08 04:55:07;;;;;;;8.68;3.20;;;;;;;13.57;56.51;100415.63;5159519;27;20095;-55
2023/05/08 04:57:33;;;;;;;9.43;3.40;;;;;;;14.31;55.57;100416.63;5159745;27;20138;-57
2023/05/08 04:59:59;;;;;;;4.97;2.97;;;;;;;14.10;55.48;100416.94;5159334;27;20050;-60
2023/05/08 05:02:25;;;;;;;4.55;3.10;;;;;;;13.50;55.96;100412.69;5159725;27;20054;-63
2023/05/08 05:04:51;;;;;;;6.57;3.63;;;;;;;14.80;54.60;100423.63;5159145;27;20058;-59
2023/05/08 05:07:18;;;;;;;4.10;3.05;;;;;;;15.03;54.30;100418.97;5159452;27;20055;-56
2023/05/08 05:09:44;;;;;;;10.20;3.13;;;;;;;15.52;53.49;100417.50;5159474;27;20145;-59
2023/05/08 05:12:10;;;;;;;4.70;3.13;;;;;;;15.14;52.82;100415.63;5159284;27;20046;-55
2023/05/08 05:14:36;;;;;;;5.03;3.30;;;;;;;15.98;51.87;100417.53;5158914;27;20103;-60
2023/05/08 05:17:02;;;;;;;6.15;3.10;;;;;;;15.78;50.92;100425.09;5159070;27;20054;-62
2023/05/08 05:19:27;;;;;;;7.35;3.65;;;;;;;16.43;50.06;100419.41;5159239;27;20050;-65
2023/05/08 05:21:53;;;;;;;7.43;4.88;;;;;;;16.66;50.89;100430.41;5158974;27;20095;-65
2023/05/08 05:24:20;;;;;;;12.00;4.40;;;;;;;16.15;50.58;100421.75;5159366;27;20092;-63
2023/05/08 05:26:46;;;;;;;5.70;3.72;;;;;;;16.67;49.88;100423.69;5158920;27;20043;-63
2023/05/08 05:29:12;;;;;;;8.73;4.97;;;;;;;16.85;49.52;100420.38;5158194;27;20437;-65
2023/05/08 05:31:38;;;;;;;9.40;3.60;;;;;;;16.52;49.06;100419.09;5158718;27;20076;-64
2023/05/08 05:34:04;;;;;;;7.60;4.10;;;;;;;17.08;48.29;100434.88;5159051;27;20437;-62
2023/05/08 05:36:30;;;;;;;7.35;4.47;;;;;;;17.33;47.41;100429.63;5158716;27;20046;-60
2023/05/08 05:38:56;;;;;;;6.75;3.60;;;;;;;17.08;48.33;100440.44;5158876;27;20085;-59
2023/05/08 05:41:23;;;;;;;8.77;4.60;;;;;;;16.87;49.08;100426.34;5158720;27;20058;-58
2023/05/08 05:43:49;;;;;;;6.60;3.95;;;;;;;17.11;48.38;100431.38;5158608;27;20061;-66
2023/05/08 05:46:15;;;;;;;7.07;4.55;;;;;;;16.32;48.18;100428.72;5158910;27;20046;-63
2023/05/08 05:48:41;;;;;;;7.25;3.90;;;;;;;16.49;49.04;100433.69;5158536;27;20419;-61
2023/05/08 05:51:07;;;;;;;6.75;4.28;;;;;;;17.11;48.10;100436.13;5158833;27;20194;-60
2023/05/08 05:53:33;;;;;;;5.97;4.32;;;;;;;16.79;48.09;100432.94;5158514;27;20126;-58
2023/05/08 05:55:58;;;;;;;8.40;4.40;;;;;;;16.88;48.15;100439.00;5158860;27;20058;-54
2023/05/08 05:58:27;;;;;;;7.22;4.00;;;;;;;17.16;47.29;100439.34;5158376;27;20054;-54
2023/05/08 06:00:53;;;;;;;5.97;4.38;;;;;;;16.93;47.24;100442.25;5158798;27;20107;-58
2023/05/08 06:03:19;;;;;;;10.50;4.25;;;;;;;16.95;47.98;100444.63;5158511;27;20054;-59
2023/05/08 06:05:46;;;;;;;9.27;3.80;;;;;;;16.84;47.52;100450.03;5158195;27;20058;-62
2023/05/08 06:08:12;;;;;;;7.30;4.03;;;;;;;17.39;46.84;100447.53;5158252;27;20047;-59
2023/05/08 06:10:38;;;;;;;6.90;4.10;;;;;;;18.12;46.74;100447.00;5158384;27;20046;-64
2023/05/08 06:13:04;;;;;;;8.40;4.20;;;;;;;18.12;46.15;100438.69;5158420;27;20054;-63
2023/05/08 06:15:30;;;;;;;10.15;4.18;;;;;;;18.44;45.78;100446.44;5158264;27;20046;-59
2023/05/08 06:17:57;;;;;;;4.68;3.60;;;;;;;18.67;45.89;100444.19;5158511;27;20091;-63
2023/05/08 06:20:22;;;;;;;9.43;4.05;;;;;;;18.70;45.76;100451.75;5158006;27;20435;-54
2023/05/08 06:22:48;;;;;;;5.47;4.13;;;;;;;17.80;46.36;100442.00;5158469;27;20086;-56
2023/05/08 06:25:15;;;;;;;15.35;4.30;;;;;;;18.84;44.49;100451.06;5158006;27;20047;-59
2023/05/08 06:27:42;;;;;;;4.78;3.53;;;;;;;19.15;43.49;100446.81;5158429;27;20061;-58
2023/05/08 06:30:09;;;;;;;6.72;3.88;;;;;;;19.04;43.19;100440.44;5157878;27;20077;-58
2023/05/08 06:32:36;;;;;;;5.15;3.63;;;;;;;19.15;42.48;100452.38;5157729;27;20332;-59
2023/05/08 06:35:02;;;;;;;8.15;3.47;;;;;;;18.96;43.23;100447.94;5158064;27;20051;-56
2023/05/08 06:37:28;;;;;;;17.13;4.85;;;;;;;17.77;43.53;100448.31;5158091;27;20050;-56
2023/05/08 06:39:54;;;;;;;4.88;3.90;;;;;;;18.23;43.65;100449.88;5158529;27;20462;-60
2023/05/08 06:42:20;;;;;;;6.68;4.03;;;;;;;19.07;43.78;100450.75;5161522;27;20073;-61
2023/05/08 06:44:46;;;;;;;9.93;5.70;;;;;;;19.95;43.35;100445.78;5161834;27;20047;-63
2023/05/08 06:47:12;;;;;;;9.23;3.95;;;;;;;18.97;43.99;100449.53;5161420;27;20411;-63
2023/05/08 06:49:38;;;;;;;4.68;4.00;;;;;;;19.28;43.25;100450.81;5161308;27;20137;-61
2023/05/08 06:52:04;;;;;;;6.57;3.92;;;;;;;19.22;42.87;100455.16;5161262;27;20535;-62
2023/05/08 06:54:30;;;;;;;5.63;3.70;;;;;;;19.33;42.67;100460.00;5161779;27;20050;-61
2023/05/08 06:56:56;;;;;;;7.68;3.50;;;;;;;18.43;42.32;100456.75;5161252;27;20050;-57
2023/05/08 06:59:22;;;;;;;4.00;2.90;;;;;;;16.94;42.18;100446.59;5161822;27;20103;-58
2023/05/08 07:01:48;;;;;;;6.15;4.90;;;;;;;19.30;41.56;100458.78;5161507;27;20057;-64
2023/05/08 07:04:14;;;;;;;5.65;3.63;;;;;;;18.21;42.51;100450.25;5161428;27;20365;-60
2023/05/08 07:06:41;;;;;;;7.45;4.45;;;;;;;17.26;42.08;100451.75;5161144;27;20057;-58
2023/05/08 07:09:07;;;;;;;6.53;3.83;;;;;;;17.75;42.26;100442.31;5161391;27;20432;-55
2023/05/08 07:11:33;;;;;;;5.18;3.40;;;;;;;17.59;42.13;100448.13;5161346;27;20046;-59
2023/05/08 07:13:59;;;;;;;7.00;3.75;;;;;;;17.77;41.82;100447.53;5161141;27;20096;-56
2023/05/08 07:16:25;;;;;;;7.82;3.67;;;;;;;18.78;41.95;100455.38;5161231;27;20422;-63
2023/05/08 07:18:51;;;;;;;7.35;3.65;;;;;;;18.44;40.98;100454.78;5160956;27;20137;-64
2023/05/08 07:21:19;;;;;;;4.95;3.55;;;;;;;17.34;42.22;100456.16;5161328;27;20043;-64
2023/05/08 07:23:46;;;;;;;7.60;3.85;;;;;;;16.65;42.37;100452.91;5160864;27;20042;-61
2023/05/08 07:26:12;;;;;;;9.15;4.38;;;;;;;16.83;42.12;100448.44;5161406;27;20114;-64
2023/05/08 07:28:38;;;;;;;6.35;4.10;;;;;;;16.73;42.72;100446.31;5160843;27;20535;-62
2023/05/08 07:31:04;;;;;;;6.40;3.85;;;;;;;18.32;42.21;100456.66;5160931;27;20198;-62
2023/05/08 07:33:30;;;;;;;3.17;2.83;;;;;;;17.74;41.09;100442.72;5160971;27;20047;-61
2023/05/08 07:35:57;;;;;;;5.28;3.15;;;;;;;18.13;41.24;100451.41;5160829;27;20214;-63
2023/05/08 07:38:22;;;;;;;4.53;3.28;;;;;;;17.91;41.68;100469.03;5160927;27;20050;-55
2023/05/08 07:40:50;;;;;;;3.88;3.05;;;;;;;17.09;40.25;100455.91;5160692;27;20090;-53
2023/05/08 07:43:16;;;;;;;3.35;2.88;;;;;;;17.63;40.90;100470.34;5160715;27;20404;-63
2023/05/08 07:45:42;;;;;;;6.15;2.63;;;;;;;17.05;41.05;100468.09;5160716;27;20225;-63
2023/05/08 07:48:08;;;;;;;4.05;3.10;;;;;;;18.88;41.60;100453.84;5160934;27;20194;-63
2023/05/08 07:50:35;;;;;;;4.07;3.08;;;;;;;18.81;40.92;100452.63;5160416;27;20138;-60
2023/05/08 07:53:01;;;;;;;5.35;2.92;;;;;;;18.74;40.37;100463.72;5162125;27;20047;-57
2023/05/08 07:55:27;;;;;;;5.25;3.17;;;;;;;19.66;40.16;100448.56;5162947;27;20083;-58
2023/05/08 07:57:53;;;;;;;5.78;3.80;;;;;;;18.66;40.80;100452.91;5160822;27;20084;-56
2023/05/08 08:00:19;;;;;;;5.55;3.38;;;;;;;18.18;41.63;100453.78;5160523;27;20061;-54
2023/05/08 08:02:45;;;;;;;4.53;2.80;;;;;;;17.57;40.86;100444.94;5160244;27;20434;-62
2023/05/08 08:05:11;;;;;;;3.47;2.88;;;;;;;17.64;40.93;100452.50;5160434;27;20055;-63
2023/05/08 08:07:37;;;;;;;6.13;3.47;;;;;;;17.64;41.78;100452.50;5160341;27;20389;-58
2023/05/08 08:10:04;;;;;;;3.83;3.42;;;;;;;18.54;41.26;100443.72;5160217;27;20046;-59
2023/05/08 08:12:30;;;;;;;7.72;3.08;;;;;;;18.75;40.69;100456.16;5160064;27;20157;-63
2023/05/08 08:14:57;;;;;;;4.43;3.28;;;;;;;17.63;41.99;100448.16;5160211;27;20051;-56
2023/05/08 08:17:23;;;;;;;4.35;3.50;;;;;;;18.23;42.64;100445.13;5159921;27;20053;-59
2023/05/08 08:19:49;;;;;;;4.50;3.08;;;;;;;17.99;42.06;100445.72;5160220;27;20047;-57
2023/05/08 08:22:15;;;;;;;5.70;3.45;;;;;;;17.44;41.88;100440.03;5159876;27;20093;-61
2023/05/08 08:24:41;;;;;;;6.38;2.95;;;;;;;17.68;41.56;100450.56;5160351;27;20042;-63
2023/05/08 08:27:07;;;;;;;4.18;3.20;;;;;;;17.74;40.89;100442.72;5159757;27;20054;-63
2023/05/08 08:29:33;;;;;;;3.70;3.28;;;;;;;18.63;40.53;100451.72;5160205;27;20043;-56
2023/05/08 08:32:02;;;;;;;5.25;3.25;;;;;;;18.68;40.70;100454.13;5159651;27;20062;-60
2023/05/08 08:34:28;;;;;;;4.25;3.22;;;;;;;18.45;40.98;100443.28;5159775;27;20133;-63
2023/05/08 08:36:53;;;;;;;6.70;3.30;;;;;;;19.83;40.65;100435.88;5159806;27;20372;-61
2023/05/08 08:39:20;;;;;;;9.45;4.30;;;;;;;19.02;40.67;100440.00;5159716;27;20051;-58
2023/05/08 08:41:46;;;;;;;5.25;3.13;;;;;;;18.57;41.38;100442.16;5159924;27;20050;-60
2023/05/08 08:44:12;;;;;;;4.47;3.67;;;;;;;18.67;40.58;100443.41;5159471;27;20051;-62
2023/05/08 08:46:43;;;;;;;5.30;3.30;;;;;;;17.96;40.42;100447.31;5159716;27;20053;-57
2023/05/08 08:49:16;;;;;;;4.30;2.88;;;;;;;18.15;41.96;100429.59;5159531;27;20137;-55
2023/05/08 08:51:49;;;;;;;5.80;3.30;;;;;;;18.08;40.96;100435.09;5159790;27;20149;-58
2023/05/08 08:54:20;;;;;;;7.45;3.22;;;;;;;17.65;40.81;100435.47;5159139;27;20334;-60
2023/05/08 08:56:48;;;;;;;5.35;3.00;;;;;;;18.21;41.67;100427.25;5159539;27;20054;-61
2023/05/08 08:59:16;;;;;;;5.05;3.28;;;;;;;19.04;40.61;100427.31;5159581;27;20047;-63
2023/05/08 09:01:46;;;;;;;3.92;2.72;;;;;;;17.34;40.49;100435.97;5159214;27;20424;-63
2023/05/08 09:04:13;;;;;;;4.18;3.05;;;;;;;17.37;40.42;100435.22;5159353;27;20114;-62
2023/05/08 09:06:40;;;;;;;5.22;3.15;;;;;;;17.47;40.89;100431.75;5159182;27;20134;-59
2023/05/08 09:09:06;;;;;;;3.95;3.28;;;;;;;17.33;41.32;100424.09;5159341;27;20396;-63
2023/05/08 09:11:32;;;;;;;7.55;3.20;;;;;;;17.11;41.65;100433.34;5159013;27;20395;-55
2023/05/08 09:13:58;;;;;;;7.00;3.00;;;;;;;17.31;41.83;100428.41;5159192;27;20046;-63
2023/05/08 09:16:27;;;;;;;5.15;2.83;;;;;;;16.96;41.78;100412.19;5159041;27;20400;-58
2023/05/08 09:18:53;;;;;;;6.57;2.97;;;;;;;17.40;42.12;100413.06;5159487;27;20133;-56
2023/05/08 09:21:21;;;;;;;7.43;3.13;;;;;;;18.11;41.74;100406.56;5158888;27;20188;-60
2023/05/08 09:23:57;;;;;;;5.82;3.65;;;;;;;17.33;41.53;100409.44;5159005;27;20141;-62
2023/05/08 09:26:27;;;;;;;4.35;3.30;;;;;;;17.76;41.39;100412.59;5158968;27;20057;-61
2023/05/08 09:29:07;;;;;;;6.50;3.13;;;;;;;18.07;40.94;100400.19;5158906;27;20103;-60
2023/05/08 09:31:34;;;;;;;8.50;3.22;;;;;;;17.78;41.33;100419.38;5158967;27;20050;-61
2023/05/08 09:34:00;;;;;;;7.18;3.35;;;;;;;17.18;41.62;100402.94;5158779;27;20058;-61
2023/05/08 09:36:27;;;;;;;3.85;2.95;;;;;;;18.42;40.55;100405.16;5158926;27;20473;-59
2023/05/08 09:38:53;;;;;;;4.55;2.85;;;;;;;17.30;40.20;100397.13;5158598;27;20047;-63
2023/05/08 09:41:20;;;;;;;6.70;3.45;;;;;;;17.67;40.75;100401.06;5159057;27;20050;-62
2023/05/08 09:44:01;;;;;;;8.13;3.05;;;;;;;19.00;40.54;100395.16;5158435;27;20042;-57
2023/05/08 09:46:27;;;;;;;5.03;3.10;;;;;;;19.09;40.40;100397.56;5158716;27;20364;-60
2023/05/08 09:48:54;;;;;;;4.00;3.40;;;;;;;18.90;40.45;100398.69;5158810;27;20049;-62
2023/05/08 09:51:21;;;;;;;8.70;4.00;;;;;;;17.61;40.69;100403.38;5158504;27;20054;-59
2023/05/08 09:53:50;;;;;;;5.18;3.60;;;;;;;17.16;41.17;100397.78;5158818;27;20111;-59
2023/05/08 09:56:28;;;;;;;5.90;5.30;;;;;;;16.53;42.04;100390.28;5158352;27;20444;-62
2023/05/08 09:58:54;;;;;;;4.22;3.72;;;;;;;18.53;41.61;100385.81;5158739;27;20146;-59
2023/05/08 10:01:28;;;;;;;7.95;4.35;;;;;;;17.99;42.12;100388.25;5158168;27;20046;-63
2023/05/08 10:03:54;;;;;;;6.47;3.85;;;;;;;17.51;42.13;100392.97;5158682;27;20137;-59
2023/05/08 10:06:20;;;;;;;6.75;3.60;;;;;;;16.84;42.15;100385.53;5158021;27;20093;-55
2023/05/08 10:08:48;;;;;;;9.23;4.07;;;;;;;16.59;42.17;100376.88;5158367;27;20082;-56
2023/05/08 10:11:15;;;;;;;6.20;3.63;;;;;;;17.81;42.13;100376.22;5158127;27;20360;-64
2023/05/08 10:13:41;;;;;;;8.88;3.72;;;;;;;18.21;41.59;100378.09;5158111;27;20065;-59
2023/05/08 10:16:13;;;;;;;4.63;3.20;;;;;;;16.99;41.62;100375.41;5157508;27;20133;-61
2023/05/08 10:18:44;;;;;;;7.25;3.38;;;;;;;17.44;41.42;100384.59;5158119;27;20141;-63
2023/05/08 10:21:11;;;;;;;3.28;2.90;;;;;;;17.80;42.02;100375.44;5158416;27;20073;-63
2023/05/08 10:23:38;;;;;;;5.70;3.40;;;;;;;17.30;41.21;100386.06;5158005;27;20141;-60
2023/05/08 10:26:10;;;;;;;4.97;3.03;;;;;;;17.44;41.45;100374.31;5158330;27;20060;-63
2023/05/08 10:28:43;;;;;;;8.40;3.42;;;;;;;17.33;41.05;100388.06;5157804;27;20050;-53
2023/05/08 10:31:12;;;;;;;5.05;3.38;;;;;;;17.18;41.30;100373.25;5158285;27;20053;-57
2023/05/08 10:33:40;;;;;;;7.80;3.20;;;;;;;18.18;41.00;100372.53;5158066;27;20057;-55
2023/05/08 10:36:08;;;;;;;6.95;3.25;;;;;;;17.31;41.00;100384.06;5157892;27;20123;-53
2023/05/08 10:38:36;;;;;;;7.18;3.35;;;;;;;16.56;42.14;100359.06;5158147;27;20108;-63
2023/05/08 10:41:02;;;;;;;7.22;2.97;;;;;;;16.81;42.63;100359.38;5157620;27;20369;-54
2023/05/08 10:43:30;;;;;;;3.30;2.92;;;;;;;17.25;41.47;100366.19;5158135;27;20060;-61
2023/05/08 10:45:57;;;;;;;4.35;2.97;;;;;;;16.45;42.04;100364.44;5157592;27;20423;-57
2023/05/08 10:48:31;;;;;;;6.43;3.08;;;;;;;16.87;42.31;100360.66;5158033;27;20109;-55
2023/05/08 10:51:04;;;;;;;9.77;3.37;;;;;;;17.24;42.44;100370.16;5157605;27;20050;-54
2023/05/08 10:53:39;;;;;;;9.85;3.00;;;;;;;17.01;41.58;100373.88;5157938;27;20051;-59
2023/05/08 10:56:05;;;;;;;8.23;2.80;;;;;;;16.47;41.37;100359.34;5157814;27;20129;-56
2023/05/08 10:58:33;;;;;;;6.05;3.15;;;;;;;15.84;42.05;100371.09;5157620;27;20133;-62
2023/05/08 11:01:15;;;;;;;5.72;3.97;;;;;;;15.21;42.39;100352.22;5157750;27;20130;-59
2023/05/08 11:03:46;;;;;;;3.85;3.20;;;;;;;14.89;42.70;100341.38;5157488;27;20145;-54
2023/05/08 11:06:13;;;;;;;6.13;4.28;;;;;;;15.85;42.83;100347.00;5157631;27;20192;-58
2023/05/08 11:08:47;;;;;;;5.03;2.97;;;;;;;15.40;42.29;100345.84;5157521;27;20408;-57
2023/05/08 11:11:23;;;;;;;3.20;2.75;;;;;;;15.19;43.54;100337.97;5158617;27;20057;-62
2023/05/08 11:13:54;;;;;;;4.10;3.17;;;;;;;15.29;43.02;100332.66;5159531;27;20114;-57
2023/05/08 11:16:53;;;;;;;3.95;2.90;;;;;;;14.93;44.02;100330.41;5158070;27;20051;-62
2023/05/08 11:19:20;;;;;;;4.70;3.08;;;;;;;15.17;44.08;100321.00;5157586;27;20137;-55
2023/05/08 11:22:15;;;;;;;6.75;2.90;;;;;;;15.03;43.73;100332.59;5157332;27;20133;-62
2023/05/08 11:24:47;;;;;;;5.00;3.35;;;;;;;14.94;43.60;100332.00;5157723;27;20059;-58
2023/05/08 11:27:14;;;;;;;3.25;2.67;;;;;;;14.31;44.00;100328.34;5157916;27;20050;-55
2023/05/08 11:29:40;;;;;;;3.95;2.90;;;;;;;14.10;44.43;100325.16;5160769;27;20411;-57
2023/05/08 11:32:07;;;;;;;6.70;3.05;;;;;;;13.91;44.77;100344.41;5160881;27;20047;-62